createdAt,value
2023-02-13T00:00:41.977Z,101838.63
2023-02-13T00:03:09.614Z,101841.13
2023-02-13T00:05:38.628Z,101833.19
2023-02-13T00:08:06.470Z,101831.44
2023-02-13T00:10:34.382Z,101823.59
2023-02-13T00:13:02.002Z,101824.59
2023-02-13T00:15:29.725Z,101831.09
2023-02-13T00:17:57.320Z,101819.78
2023-02-13T00:20:25.181Z,101825.41
2023-02-13T00:22:54.159Z,101822.53
2023-02-13T00:25:21.757Z,101822.88
2023-02-13T00:27:49.330Z,101829.97
2023-02-13T00:30:17.522Z,101825.22
2023-02-13T00:32:45.108Z,101835.28
2023-02-13T00:35:12.727Z,101828.97
2023-02-13T00:37:40.365Z,101826.75
2023-02-13T00:40:10.455Z,101827.16
2023-02-13T00:42:38.040Z,101824.44
2023-02-13T00:45:06.293Z,101823.41
2023-02-13T00:47:33.915Z,101827.69
2023-02-13T00:50:01.551Z,101815.78
2023-02-13T00:52:29.144Z,101823.13
2023-02-13T00:54:56.720Z,101822.22
2023-02-13T00:57:25.709Z,101822.59
2023-02-13T00:59:53.268Z,101827.09
2023-02-13T01:02:20.908Z,101824.53
2023-02-13T01:04:48.501Z,101829.03
2023-02-13T01:07:16.784Z,101823.06
2023-02-13T01:09:44.679Z,101828.66
2023-02-13T01:12:12.269Z,101826.47
2023-02-13T01:14:41.203Z,101824.09
2023-02-13T01:17:08.813Z,101828.25
2023-02-13T01:19:36.367Z,101822.91
2023-02-13T01:22:03.962Z,101824.09
2023-02-13T01:24:33.170Z,101827.94
2023-02-13T01:27:02.351Z,101826.25
2023-02-13T01:29:30.011Z,101826.72
2023-02-13T01:31:59.035Z,101818.59
2023-02-13T01:34:26.705Z,101824.88
2023-02-13T01:36:54.348Z,101819.78
2023-02-13T01:39:21.996Z,101817.78
2023-02-13T01:41:49.578Z,101818.84
2023-02-13T01:44:49.568Z,101816.97
2023-02-13T01:47:25.194Z,101821.63
2023-02-13T01:50:02.605Z,101824.78
2023-02-13T01:52:30.962Z,101831.28
2023-02-13T01:54:58.645Z,101828.47
2023-02-13T01:57:29.776Z,101831.19
2023-02-13T02:00:03.182Z,101826.94
2023-02-13T02:02:36.141Z,101820.88
2023-02-13T02:05:05.116Z,101820.06
2023-02-13T02:07:34.083Z,101811.56
2023-02-13T02:10:06.317Z,101817.81
2023-02-13T02:12:40.332Z,101810.72
2023-02-13T02:15:09.170Z,101811.53
2023-02-13T02:17:38.404Z,101807.25
2023-02-13T02:20:20.984Z,101804.66
2023-02-13T02:23:15.013Z,101803.88
2023-02-13T02:26:29.248Z,101807.38
2023-02-13T02:29:22.891Z,101805.00
2023-02-13T02:32:11.956Z,101813.03
2023-02-13T02:34:52.074Z,101813.91
2023-02-13T02:37:38.695Z,101809.53
2023-02-13T02:40:17.664Z,101809.66
2023-02-13T02:42:58.926Z,101807.25
2023-02-13T02:45:34.767Z,101805.63
2023-02-13T02:48:28.396Z,101805.59
2023-02-13T02:51:02.567Z,101802.13
2023-02-13T02:53:34.298Z,101804.72
2023-02-13T02:56:09.446Z,101810.84
2023-02-13T02:59:00.421Z,101811.84
2023-02-13T03:01:48.667Z,101809.34
2023-02-13T03:04:42.673Z,101809.53
2023-02-13T03:07:14.972Z,101811.94
2023-02-13T03:10:04.829Z,101812.06
2023-02-13T03:12:57.140Z,101819.50
2023-02-13T03:15:27.291Z,101818.66
2023-02-13T03:18:12.817Z,101815.56
2023-02-13T03:21:04.822Z,101815.59
2023-02-13T03:23:43.283Z,101818.22
2023-02-13T03:26:45.476Z,101819.91
2023-02-13T03:29:39.115Z,101820.81
2023-02-13T03:32:17.683Z,101825.16
2023-02-13T03:35:10.348Z,101822.41
2023-02-13T03:37:57.422Z,101826.88
2023-02-13T03:40:32.253Z,101821.81
2023-02-13T03:43:09.210Z,101824.47
2023-02-13T03:45:56.642Z,101821.28
2023-02-13T03:48:45.709Z,101820.66
2023-02-13T03:51:17.454Z,101819.97
2023-02-13T03:53:49.104Z,101825.84
2023-02-13T03:56:37.355Z,101826.53
2023-02-13T03:59:16.930Z,101823.28
2023-02-13T04:01:50.325Z,101831.22
2023-02-13T04:04:26.328Z,101833.22
2023-02-13T04:06:57.284Z,101822.97
2023-02-13T04:09:28.344Z,101820.31
2023-02-13T04:12:03.846Z,101818.25
2023-02-13T04:14:37.795Z,101814.75
2023-02-13T04:17:08.140Z,101825.31
2023-02-13T04:19:36.073Z,101820.53
2023-02-13T04:22:04.098Z,101823.81
2023-02-13T04:24:33.154Z,101827.47
2023-02-13T04:27:01.059Z,101820.44
2023-02-13T04:29:28.704Z,101830.81
2023-02-13T04:31:56.409Z,101833.47
2023-02-13T04:34:23.999Z,101826.47
2023-02-13T04:36:51.591Z,101824.03
2023-02-13T04:39:19.130Z,101833.66
2023-02-13T04:41:48.065Z,101835.47
2023-02-13T04:44:15.624Z,101832.72
2023-02-13T04:46:43.250Z,101830.97
2023-02-13T04:49:11.229Z,101824.03
2023-02-13T04:51:39.029Z,101823.00
2023-02-13T04:54:06.681Z,101825.44
2023-02-13T04:56:34.309Z,101819.66
2023-02-13T04:59:03.305Z,101820.53
2023-02-13T05:01:31.385Z,101815.19
2023-02-13T05:03:58.980Z,101821.50
2023-02-13T05:06:26.627Z,101823.91
2023-02-13T05:08:54.266Z,101829.22
2023-02-13T05:11:21.890Z,101818.13
2023-02-13T05:13:49.490Z,101822.50
2023-02-13T05:16:18.432Z,101823.38
2023-02-13T05:18:45.976Z,101820.03
2023-02-13T05:21:42.731Z,101817.31
2023-02-13T05:24:10.376Z,101818.31
2023-02-13T05:26:37.997Z,101825.16
2023-02-13T05:29:22.517Z,101826.16
2023-02-13T05:31:53.697Z,101821.91
2023-02-13T05:34:21.888Z,101821.84
2023-02-13T05:36:49.715Z,101815.75
2023-02-13T05:39:17.434Z,101822.50
2023-02-13T05:41:45.802Z,101821.69
2023-02-13T05:44:14.018Z,101821.00
2023-02-13T05:46:43.108Z,101814.00
2023-02-13T05:49:13.316Z,101812.34
2023-02-13T05:51:41.036Z,101811.41
2023-02-13T05:54:08.868Z,101814.09
2023-02-13T05:56:36.497Z,101808.16
2023-02-13T05:59:04.110Z,101816.66
2023-02-13T06:01:31.740Z,101810.72
2023-02-13T06:04:00.944Z,101810.75
2023-02-13T06:06:31.749Z,101816.78
2023-02-13T06:08:59.310Z,101815.16
2023-02-13T06:11:26.914Z,101816.81
2023-02-13T06:13:54.502Z,101813.19
2023-02-13T06:16:22.451Z,101814.91
2023-02-13T06:18:50.081Z,101827.38
2023-02-13T06:21:17.713Z,101820.53
2023-02-13T06:23:46.723Z,101816.78
2023-02-13T06:26:14.513Z,101821.25
2023-02-13T06:28:42.260Z,101821.31
2023-02-13T06:31:09.977Z,101824.78
2023-02-13T06:33:37.715Z,101835.03
2023-02-13T06:36:05.628Z,101834.34
2023-02-13T06:38:33.208Z,101828.09
2023-02-13T06:41:03.006Z,101828.06
2023-02-13T06:43:30.907Z,101831.56
2023-02-13T06:45:58.538Z,101831.56
2023-02-13T06:48:26.488Z,101837.78
2023-02-13T06:50:54.328Z,101840.38
2023-02-13T06:53:24.713Z,101842.06
2023-02-13T06:55:53.845Z,101836.66
2023-02-13T06:58:24.159Z,101840.25
2023-02-13T07:00:53.107Z,101836.72
2023-02-13T07:03:20.905Z,101839.41
2023-02-13T07:05:51.813Z,101843.75
2023-02-13T07:08:19.786Z,101844.72
2023-02-13T07:10:47.391Z,101844.56
2023-02-13T07:13:15.153Z,101845.31
2023-02-13T07:15:44.577Z,101841.03
2023-02-13T07:18:12.349Z,101843.69
2023-02-13T07:20:39.983Z,101846.28
2023-02-13T07:23:07.929Z,101854.78
2023-02-13T07:25:35.599Z,101846.97
2023-02-13T07:28:04.453Z,101842.72
2023-02-13T07:30:32.307Z,101844.25
2023-02-13T07:33:02.448Z,101852.81
2023-02-13T07:35:30.360Z,101862.28
2023-02-13T07:37:58.051Z,101855.22
2023-02-13T07:40:25.694Z,101854.06
2023-02-13T07:42:53.285Z,101855.69
2023-02-13T07:45:20.896Z,101859.84
2023-02-13T07:47:48.496Z,101860.88
2023-02-13T07:50:17.903Z,101861.41
2023-02-13T07:52:45.650Z,101859.44
2023-02-13T07:55:13.527Z,101856.81
2023-02-13T07:57:41.138Z,101854.78
2023-02-13T08:00:09.998Z,101853.66
2023-02-13T08:02:37.640Z,101853.25
2023-02-13T08:05:06.288Z,101855.41
2023-02-13T08:07:35.878Z,101860.19
2023-02-13T08:10:22.179Z,101851.09
2023-02-13T08:12:49.970Z,101857.88
2023-02-13T08:15:17.687Z,101852.31
2023-02-13T08:17:45.446Z,101852.22
2023-02-13T08:20:13.315Z,101855.13
2023-02-13T08:22:42.227Z,101848.91
2023-02-13T08:25:09.994Z,101852.25
2023-02-13T08:27:37.691Z,101849.34
2023-02-13T08:30:06.785Z,101844.03
2023-02-13T08:32:48.351Z,101847.78
2023-02-13T08:35:19.689Z,101854.47
2023-02-13T08:37:48.672Z,101847.75
2023-02-13T08:40:16.364Z,101850.63
2023-02-13T08:42:43.931Z,101845.44
2023-02-13T08:45:11.674Z,101849.88
2023-02-13T08:47:40.068Z,101846.03
2023-02-13T08:50:08.768Z,101841.19
2023-02-13T08:52:36.714Z,101842.94
2023-02-13T08:55:06.228Z,101837.91
2023-02-13T08:57:33.788Z,101837.72
2023-02-13T09:00:01.380Z,101837.91
2023-02-13T09:02:29.233Z,101837.72
2023-02-13T09:04:56.783Z,101839.50
2023-02-13T09:07:24.458Z,101846.25
2023-02-13T09:09:52.295Z,101847.75
2023-02-13T09:12:21.289Z,101849.50
2023-02-13T09:14:49.134Z,101850.25
2023-02-13T09:17:18.882Z,101848.28
2023-02-13T09:19:46.733Z,101849.97
2023-02-13T09:22:17.054Z,101854.28
2023-02-13T09:24:44.705Z,101855.16
2023-02-13T09:27:12.358Z,101848.28
2023-02-13T09:29:41.361Z,101854.31
2023-02-13T09:32:09.006Z,101855.44
2023-02-13T09:34:36.691Z,101859.66
2023-02-13T09:37:04.550Z,101856.16
2023-02-13T09:39:32.079Z,101860.38
2023-02-13T09:42:01.321Z,101856.72
2023-02-13T09:44:36.188Z,101860.28
2023-02-13T09:47:11.371Z,101859.06
2023-02-13T09:49:45.151Z,101860.69
2023-02-13T09:52:13.044Z,101845.66
2023-02-13T09:54:40.644Z,101855.31
2023-02-13T09:57:17.745Z,101852.63
2023-02-13T09:59:57.792Z,101850.72
2023-02-13T10:02:39.873Z,101845.69
2023-02-13T10:05:18.998Z,101845.28
2023-02-13T10:07:55.775Z,101849.81
2023-02-13T10:10:35.266Z,101844.41
2023-02-13T10:13:24.476Z,101839.75
2023-02-13T10:15:59.642Z,101853.19
2023-02-13T10:18:38.660Z,101844.19
2023-02-13T10:21:08.668Z,101844.44
2023-02-13T10:23:40.539Z,101835.16
2023-02-13T10:26:13.736Z,101841.66
2023-02-13T10:28:45.710Z,101839.63
2023-02-13T10:31:16.752Z,101841.22
2023-02-13T10:33:50.590Z,101838.81
2023-02-13T10:36:22.130Z,101845.81
2023-02-13T10:38:57.843Z,101830.09
2023-02-13T10:41:29.436Z,101838.66
2023-02-13T10:44:13.573Z,101844.28
2023-02-13T10:46:52.502Z,101834.47
2023-02-13T10:49:40.079Z,101827.69
2023-02-13T10:52:23.512Z,101829.84
2023-02-13T10:55:06.580Z,101824.91
2023-02-13T10:57:47.492Z,101810.34
2023-02-13T11:00:19.689Z,101818.53
2023-02-13T11:02:47.702Z,101814.84
2023-02-13T11:05:20.273Z,101818.75
2023-02-13T11:07:49.063Z,101805.78
2023-02-13T11:10:19.208Z,101807.19
2023-02-13T11:12:47.570Z,101792.66
2023-02-13T11:15:27.220Z,101795.06
2023-02-13T11:17:57.118Z,101799.41
2023-02-13T11:20:35.846Z,101793.19
2023-02-13T11:23:27.321Z,101801.88
2023-02-13T11:25:58.801Z,101793.34
2023-02-13T11:28:28.788Z,101790.63
2023-02-13T11:31:11.489Z,101792.75
2023-02-13T11:33:39.262Z,101789.69
2023-02-13T11:36:10.564Z,101782.31
2023-02-13T11:38:38.301Z,101788.94
2023-02-13T11:41:09.994Z,101794.69
2023-02-13T11:43:44.682Z,101785.72
2023-02-13T11:46:19.450Z,101783.31
2023-02-13T11:49:01.575Z,101779.47
2023-02-13T11:51:43.165Z,101780.09
2023-02-13T11:54:27.577Z,101788.28
2023-02-13T11:57:05.404Z,101776.16
2023-02-13T11:59:59.375Z,101776.78
2023-02-13T12:02:28.739Z,101772.28
2023-02-13T12:05:15.074Z,101772.88
2023-02-13T12:07:45.241Z,101773.00
2023-02-13T12:10:21.825Z,101770.16
2023-02-13T12:12:57.605Z,101776.22
2023-02-13T12:15:27.704Z,101773.19
2023-02-13T12:18:06.117Z,101765.94
2023-02-13T12:20:41.865Z,101769.66
2023-02-13T12:23:27.558Z,101767.91
2023-02-13T12:26:14.313Z,101761.00
2023-02-13T12:29:07.786Z,101763.69
2023-02-13T12:31:50.275Z,101765.72
2023-02-13T12:35:02.627Z,101767.47
2023-02-13T12:37:58.085Z,101763.53
2023-02-13T12:40:48.302Z,101752.16
2023-02-13T12:43:35.099Z,101754.41
2023-02-13T12:46:09.329Z,101749.13
2023-02-13T12:48:44.933Z,101753.19
2023-02-13T12:51:31.781Z,101742.59
2023-02-13T12:54:19.173Z,101746.78
2023-02-13T12:57:00.397Z,101745.16
2023-02-13T12:59:42.958Z,101732.72
2023-02-13T13:02:39.268Z,101734.56
2023-02-13T13:05:20.430Z,101719.16
2023-02-13T13:08:01.593Z,101714.19
2023-02-13T13:10:48.316Z,101716.34
2023-02-13T13:13:32.241Z,101715.88
2023-02-13T13:16:06.797Z,101713.75
2023-02-13T13:18:44.978Z,101700.69
2023-02-13T13:21:21.445Z,101704.91
2023-02-13T13:23:57.294Z,101703.72
2023-02-13T13:26:35.890Z,101701.78
2023-02-13T13:29:08.487Z,101701.41
2023-02-13T13:31:37.833Z,101700.34
2023-02-13T13:34:13.160Z,101695.09
2023-02-13T13:36:49.408Z,101704.91
2023-02-13T13:39:28.910Z,101697.84
2023-02-13T13:42:09.720Z,101699.47
2023-02-13T13:45:04.780Z,101690.53
2023-02-13T13:47:48.047Z,101695.63
2023-02-13T13:50:20.844Z,101686.41
2023-02-13T13:53:07.322Z,101688.66
2023-02-13T13:56:09.194Z,101688.44
2023-02-13T13:58:40.633Z,101681.44
2023-02-13T14:01:22.190Z,101681.31
2023-02-13T14:03:50.570Z,101697.56
2023-02-13T14:06:19.703Z,101681.06
2023-02-13T14:09:22.591Z,101680.09
2023-02-13T14:11:50.143Z,101677.25
2023-02-13T14:14:52.486Z,101681.63
2023-02-13T14:17:54.454Z,101669.44
2023-02-13T14:20:29.206Z,101669.09
2023-02-13T14:22:57.456Z,101666.13
2023-02-13T14:25:26.561Z,101673.94
2023-02-13T14:28:00.356Z,101662.19
2023-02-13T14:30:31.373Z,101669.97
2023-02-13T14:33:05.813Z,101671.03
2023-02-13T14:35:37.183Z,101669.28
2023-02-13T14:38:08.026Z,101658.03
2023-02-13T14:40:54.274Z,101658.88
2023-02-13T14:43:29.748Z,101659.88
2023-02-13T14:46:00.011Z,101668.75
2023-02-13T14:48:38.706Z,101666.28
2023-02-13T14:51:07.263Z,101657.00
2023-02-13T14:53:46.503Z,101649.97
2023-02-13T14:56:18.747Z,101642.63
2023-02-13T14:58:51.160Z,101655.81
2023-02-13T15:01:26.308Z,101658.91
2023-02-13T15:04:00.810Z,101651.81
2023-02-13T15:06:33.169Z,101657.31
2023-02-13T15:09:05.432Z,101650.44
2023-02-13T15:11:39.140Z,101647.78
2023-02-13T15:14:25.525Z,101647.19
2023-02-13T15:16:58.238Z,101651.81
2023-02-13T15:19:28.492Z,101656.41
2023-02-13T15:21:59.482Z,101657.19
2023-02-13T15:24:28.292Z,101649.69
2023-02-13T15:27:02.003Z,101648.72
2023-02-13T15:29:40.989Z,101641.13
2023-02-13T15:32:20.833Z,101655.22
2023-02-13T15:34:50.501Z,101650.06
2023-02-13T15:37:25.486Z,101658.03
2023-02-13T15:39:53.196Z,101647.78
2023-02-13T15:42:21.028Z,101652.50
2023-02-13T15:44:51.127Z,101648.59
2023-02-13T15:47:24.452Z,101650.19
2023-02-13T15:49:53.449Z,101645.91
2023-02-13T15:52:26.261Z,101651.72
2023-02-13T15:54:56.164Z,101652.47
2023-02-13T15:57:26.787Z,101646.53
2023-02-13T15:59:56.305Z,101658.31
2023-02-13T16:02:30.738Z,101646.28
2023-02-13T16:05:02.285Z,101642.56
2023-02-13T16:07:30.594Z,101640.25
2023-02-13T16:10:16.051Z,101651.19
2023-02-13T16:12:48.053Z,101647.91
2023-02-13T16:15:19.311Z,101646.41
2023-02-13T16:17:48.338Z,101645.06
2023-02-13T16:20:23.609Z,101639.28
2023-02-13T16:22:54.200Z,101642.03
2023-02-13T16:25:27.442Z,101636.03
2023-02-13T16:27:57.660Z,101640.09
2023-02-13T16:30:33.454Z,101637.06
2023-02-13T16:33:23.913Z,101643.44
2023-02-13T16:35:55.056Z,101645.78
2023-02-13T16:38:29.595Z,101642.72
2023-02-13T16:40:58.871Z,101642.47
2023-02-13T16:43:51.672Z,101649.81
2023-02-13T16:46:25.535Z,101655.75
2023-02-13T16:49:17.038Z,101648.38
2023-02-13T16:51:49.765Z,101647.41
2023-02-13T16:54:21.986Z,101649.38
2023-02-13T16:56:52.758Z,101655.19
2023-02-13T16:59:25.980Z,101656.22
2023-02-13T17:02:16.818Z,101660.19
2023-02-13T17:04:46.079Z,101663.88
2023-02-13T17:07:17.358Z,101668.66
2023-02-13T17:09:44.938Z,101679.13
2023-02-13T17:12:15.751Z,101677.28
2023-02-13T17:14:43.436Z,101679.94
2023-02-13T17:17:13.993Z,101676.69
2023-02-13T17:19:41.717Z,101680.25
2023-02-13T17:22:14.389Z,101676.16
2023-02-13T17:24:43.622Z,101678.56
2023-02-13T17:27:11.811Z,101680.56
2023-02-13T17:29:39.328Z,101681.50
2023-02-13T17:32:06.966Z,101683.28
2023-02-13T17:34:34.553Z,101683.47
2023-02-13T17:37:02.085Z,101676.50
2023-02-13T17:39:29.640Z,101680.31
2023-02-13T17:41:58.559Z,101688.09
2023-02-13T17:44:26.216Z,101690.38
2023-02-13T17:46:53.768Z,101694.81
2023-02-13T17:49:21.375Z,101690.69
2023-02-13T17:51:48.926Z,101684.31
2023-02-13T17:54:16.499Z,101687.38
2023-02-13T17:56:44.199Z,101689.16
2023-02-13T17:59:13.120Z,101692.91
2023-02-13T18:01:40.720Z,101684.81
2023-02-13T18:04:08.336Z,101688.72
2023-02-13T18:06:35.896Z,101692.69
2023-02-13T18:09:03.493Z,101683.31
2023-02-13T18:11:31.273Z,101686.19
2023-02-13T18:13:58.899Z,101686.88
2023-02-13T18:16:27.851Z,101687.28
2023-02-13T18:18:55.468Z,101679.91
2023-02-13T18:21:23.424Z,101681.78
2023-02-13T18:23:53.252Z,101680.25
2023-02-13T18:26:20.841Z,101681.09
2023-02-13T18:28:52.121Z,101686.00
2023-02-13T18:31:19.931Z,101678.13
2023-02-13T18:33:48.959Z,101688.88
2023-02-13T18:36:16.602Z,101690.03
2023-02-13T18:38:44.171Z,101680.06
2023-02-13T18:41:11.791Z,101684.09
2023-02-13T18:43:40.313Z,101692.88
2023-02-13T18:46:07.945Z,101695.56
2023-02-13T18:48:35.670Z,101698.00
2023-02-13T18:51:04.935Z,101695.69
2023-02-13T18:53:32.491Z,101700.41
2023-02-13T18:56:01.628Z,101685.53
2023-02-13T18:58:29.441Z,101704.78
2023-02-13T19:00:57.418Z,101700.47
2023-02-13T19:03:25.504Z,101697.03
2023-02-13T19:05:53.077Z,101704.88
2023-02-13T19:08:21.975Z,101707.72
2023-02-13T19:10:49.796Z,101715.13
2023-02-13T19:13:17.527Z,101705.88
2023-02-13T19:15:45.243Z,101710.41
2023-02-13T19:18:13.205Z,101708.97
2023-02-13T19:20:41.457Z,101701.78
2023-02-13T19:23:09.246Z,101708.97
2023-02-13T19:25:39.352Z,101710.19
2023-02-13T19:28:07.036Z,101705.50
2023-02-13T19:30:35.203Z,101705.72
2023-02-13T19:33:02.963Z,101699.09
2023-02-13T19:35:30.649Z,101702.06
2023-02-13T19:37:58.303Z,101703.16
2023-02-13T19:40:26.048Z,101705.16
2023-02-13T19:42:55.338Z,101707.84
2023-02-13T19:45:23.057Z,101709.25
2023-02-13T19:47:50.749Z,101706.56
2023-02-13T19:50:18.564Z,101705.50
2023-02-13T19:52:46.336Z,101706.63
2023-02-13T19:55:14.097Z,101707.38
2023-02-13T19:57:41.822Z,101710.81
2023-02-13T20:00:12.139Z,101703.66
2023-02-13T20:02:40.036Z,101706.09
2023-02-13T20:05:08.928Z,101704.41
2023-02-13T20:07:36.774Z,101704.22
2023-02-13T20:10:05.794Z,101710.47
2023-02-13T20:12:33.857Z,101703.41
2023-02-13T20:15:01.638Z,101711.91
2023-02-13T20:17:30.726Z,101706.69
2023-02-13T20:19:59.000Z,101712.66
2023-02-13T20:22:26.783Z,101723.06
2023-02-13T20:24:54.548Z,101717.88
2023-02-13T20:27:22.264Z,101713.22
2023-02-13T20:29:51.407Z,101719.59
2023-02-13T20:32:19.284Z,101711.31
2023-02-13T20:34:59.511Z,101717.25
2023-02-13T20:37:27.706Z,101711.47
2023-02-13T20:39:55.589Z,101717.47
2023-02-13T20:42:23.334Z,101713.59
2023-02-13T20:44:51.126Z,101713.59
2023-02-13T20:47:19.107Z,101709.22
2023-02-13T20:49:48.953Z,101706.81
2023-02-13T20:52:16.770Z,101702.31
2023-02-13T20:54:44.563Z,101705.47
2023-02-13T20:57:13.394Z,101703.56
2023-02-13T20:59:44.897Z,101702.84
2023-02-13T21:02:13.429Z,101703.63
2023-02-13T21:04:41.364Z,101706.13
2023-02-13T21:07:10.487Z,101698.63
2023-02-13T21:09:38.783Z,101703.84
2023-02-13T21:12:07.048Z,101697.06
2023-02-13T21:14:35.123Z,101707.38
2023-02-13T21:17:03.069Z,101708.78
2023-02-13T21:19:31.990Z,101710.03
2023-02-13T21:22:11.013Z,101706.78
2023-02-13T21:24:41.244Z,101710.03
2023-02-13T21:27:10.345Z,101701.72
2023-02-13T21:29:38.891Z,101708.06
2023-02-13T21:32:06.541Z,101704.38
2023-02-13T21:34:34.339Z,101701.88
2023-02-13T21:37:02.225Z,101703.41
2023-02-13T21:39:29.832Z,101701.72
2023-02-13T21:41:58.964Z,101705.41
2023-02-13T21:44:26.641Z,101696.41
2023-02-13T21:46:54.292Z,101694.03
2023-02-13T21:49:21.983Z,101685.53
2023-02-13T21:51:49.589Z,101687.94
2023-02-13T21:54:17.211Z,101682.97
2023-02-13T21:56:45.230Z,101682.53
2023-02-13T21:59:16.512Z,101679.94
2023-02-13T22:01:46.354Z,101676.06
2023-02-13T22:04:14.304Z,101673.84
2023-02-13T22:06:41.970Z,101677.00
2023-02-13T22:09:11.688Z,101676.28
2023-02-13T22:11:39.933Z,101677.31
2023-02-13T22:14:09.911Z,101691.13
2023-02-13T22:16:40.030Z,101693.03
2023-02-13T22:19:08.397Z,101692.69
2023-02-13T22:21:37.068Z,101696.28
2023-02-13T22:24:05.271Z,101689.69
2023-02-13T22:26:34.917Z,101690.53
2023-02-13T22:29:04.502Z,101694.19
2023-02-13T22:31:32.529Z,101687.84
2023-02-13T22:34:04.613Z,101700.00
2023-02-13T22:36:32.887Z,101696.41
2023-02-13T22:39:00.471Z,101696.59
2023-02-13T22:41:28.668Z,101702.88
2023-02-13T22:43:56.362Z,101704.06
2023-02-13T22:46:25.960Z,101694.13
2023-02-13T22:48:54.329Z,101691.50
2023-02-13T22:51:25.326Z,101697.72
2023-02-13T22:53:53.885Z,101705.44
2023-02-13T22:56:21.976Z,101699.31
2023-02-13T22:58:49.691Z,101708.47
2023-02-13T23:01:20.266Z,101705.06
2023-02-13T23:03:48.524Z,101707.47
2023-02-13T23:06:16.809Z,101701.97
2023-02-13T23:08:48.902Z,101712.47
2023-02-13T23:11:35.713Z,101704.00
2023-02-13T23:14:04.322Z,101713.78
2023-02-13T23:16:52.643Z,101710.84
2023-02-13T23:19:19.648Z,101702.75
2023-02-13T23:21:47.219Z,101709.00
2023-02-13T23:24:16.495Z,101707.22
2023-02-13T23:26:44.415Z,101705.59
2023-02-13T23:29:12.125Z,101704.81
2023-02-13T23:31:39.829Z,101707.91
2023-02-13T23:34:07.507Z,101714.47
2023-02-13T23:36:35.337Z,101709.88
2023-02-13T23:39:03.046Z,101698.16
2023-02-13T23:41:32.207Z,101704.00
2023-02-13T23:43:59.732Z,101701.16
2023-02-13T23:46:27.525Z,101699.28
2023-02-13T23:48:55.219Z,101698.19
2023-02-13T23:51:25.458Z,101708.88
2023-02-13T23:53:55.931Z,101706.91
2023-02-13T23:56:23.908Z,101714.03
2023-02-13T23:58:53.179Z,101707.63
